createdAt,value
2023-01-31T00:04:01.476Z,5.50
2023-01-31T00:08:02.473Z,5.70
2023-01-31T00:12:03.796Z,5.10
2023-01-31T00:16:05.700Z,5.50
2023-01-31T00:20:08.259Z,5.40
2023-01-31T00:24:11.838Z,5.50
2023-01-31T00:28:13.156Z,5.20
2023-01-31T00:32:14.322Z,5.40
2023-01-31T00:36:18.225Z,5.40
2023-01-31T00:40:19.589Z,5.20
2023-01-31T00:44:20.597Z,4.90
2023-01-31T00:48:21.809Z,4.50
2023-01-31T00:52:25.019Z,5.10
2023-01-31T00:56:26.171Z,4.80
2023-01-31T01:00:27.171Z,5.70
2023-01-31T01:04:28.213Z,4.60
2023-01-31T01:08:30.093Z,4.80
2023-01-31T01:12:31.250Z,4.50
2023-01-31T01:16:36.817Z,4.90
2023-01-31T01:20:38.019Z,5.10
2023-01-31T01:24:38.982Z,4.80
2023-01-31T01:28:40.410Z,5.00
2023-01-31T01:32:41.489Z,5.70
2023-01-31T01:36:44.235Z,5.30
2023-01-31T01:40:46.076Z,5.80
2023-01-31T01:44:59.735Z,4.30
2023-01-31T01:49:13.532Z,3.90
2023-01-31T01:53:21.226Z,4.30
2023-01-31T01:57:26.634Z,4.40
2023-01-31T02:01:31.423Z,4.60
2023-01-31T02:05:36.276Z,5.00
2023-01-31T02:09:43.933Z,4.00
2023-01-31T02:13:46.698Z,5.00
2023-01-31T02:17:48.385Z,4.30
2023-01-31T02:21:59.031Z,4.40
2023-01-31T02:26:34.050Z,4.20
2023-01-31T02:30:44.748Z,4.40
2023-01-31T02:34:55.403Z,3.80
2023-01-31T02:39:20.005Z,4.80
2023-01-31T02:43:27.546Z,4.40
2023-01-31T02:47:59.588Z,4.50
2023-01-31T02:52:16.180Z,4.50
2023-01-31T02:56:29.943Z,4.80
2023-01-31T03:00:34.032Z,4.40
2023-01-31T03:04:37.035Z,4.00
2023-01-31T03:08:41.271Z,3.30
2023-01-31T03:13:10.344Z,3.40
2023-01-31T03:17:33.122Z,3.50
2023-01-31T03:21:41.001Z,3.30
2023-01-31T03:25:44.343Z,3.60
2023-01-31T03:29:45.979Z,4.10
2023-01-31T03:33:55.053Z,4.30
2023-01-31T03:38:02.843Z,3.80
2023-01-31T03:42:10.746Z,5.30
2023-01-31T03:46:20.498Z,4.00
2023-01-31T03:50:25.783Z,4.20
2023-01-31T03:54:30.718Z,3.80
2023-01-31T03:58:35.896Z,3.50
2023-01-31T04:02:37.315Z,4.20
2023-01-31T04:06:38.992Z,4.20
2023-01-31T04:10:40.596Z,4.10
2023-01-31T04:14:42.423Z,4.40
2023-01-31T04:18:43.632Z,5.70
2023-01-31T04:22:44.762Z,5.40
2023-01-31T04:26:46.044Z,5.40
2023-01-31T04:30:52.991Z,4.90
2023-01-31T04:34:54.034Z,4.70
2023-01-31T04:38:55.273Z,4.10
2023-01-31T04:42:56.276Z,3.70
2023-01-31T04:46:57.538Z,4.00
2023-01-31T04:50:58.484Z,4.30
2023-01-31T04:54:59.511Z,4.20
2023-01-31T04:59:03.124Z,4.10
2023-01-31T05:03:04.381Z,5.50
2023-01-31T05:07:05.624Z,5.20
2023-01-31T05:11:07.562Z,5.20
2023-01-31T05:15:11.011Z,5.20
2023-01-31T05:19:14.190Z,5.20
2023-01-31T05:23:17.671Z,4.90
2023-01-31T05:27:18.995Z,5.30
2023-01-31T05:31:20.167Z,5.10
2023-01-31T05:35:21.606Z,5.40
2023-01-31T05:39:22.680Z,5.00
2023-01-31T05:43:23.679Z,4.80
2023-01-31T05:47:24.809Z,4.10
2023-01-31T05:51:25.933Z,4.70
2023-01-31T05:55:27.123Z,4.30
2023-01-31T05:59:30.021Z,4.20
2023-01-31T06:03:31.337Z,4.50
2023-01-31T06:07:32.539Z,4.30
2023-01-31T06:11:33.536Z,3.40
2023-01-31T06:15:35.733Z,4.10
2023-01-31T06:19:37.823Z,3.80
2023-01-31T06:23:39.856Z,3.50
2023-01-31T06:27:41.133Z,3.50
2023-01-31T06:31:45.336Z,3.10
2023-01-31T06:35:46.673Z,3.90
2023-01-31T06:39:47.889Z,3.30
2023-01-31T06:43:49.085Z,4.20
2023-01-31T06:47:50.226Z,3.80
2023-01-31T06:51:51.182Z,4.00
2023-01-31T06:55:52.174Z,4.00
2023-01-31T06:59:53.530Z,4.70
2023-01-31T07:03:54.685Z,4.20
2023-01-31T07:07:56.349Z,4.60
2023-01-31T07:11:57.481Z,4.20
2023-01-31T07:15:58.501Z,5.20
2023-01-31T07:19:59.600Z,5.60
2023-01-31T07:24:00.809Z,5.60
2023-01-31T07:28:02.300Z,5.60
2023-01-31T07:32:03.823Z,5.60
2023-01-31T07:36:06.514Z,5.30
2023-01-31T07:40:08.514Z,5.00
2023-01-31T07:44:12.383Z,4.60
2023-01-31T07:48:13.339Z,4.60
2023-01-31T07:52:14.694Z,4.20
2023-01-31T07:56:18.726Z,4.80
2023-01-31T08:00:39.048Z,4.20
2023-01-31T08:04:40.093Z,4.10
2023-01-31T08:08:42.116Z,4.30
2023-01-31T08:12:43.103Z,4.30
2023-01-31T08:16:44.192Z,4.20
2023-01-31T08:20:45.254Z,5.40
2023-01-31T08:24:46.785Z,5.90
2023-01-31T08:28:49.695Z,4.60
2023-01-31T08:32:50.662Z,5.90
2023-01-31T08:36:51.817Z,5.30
2023-01-31T08:40:52.922Z,5.40
2023-01-31T08:44:54.296Z,4.20
2023-01-31T08:48:55.624Z,5.20
2023-01-31T08:52:58.938Z,4.60
2023-01-31T08:57:00.239Z,5.00
2023-01-31T09:01:05.823Z,4.90
2023-01-31T09:05:10.232Z,5.10
2023-01-31T09:09:11.151Z,5.80
2023-01-31T09:13:12.039Z,6.10
2023-01-31T09:17:13.023Z,5.90
2023-01-31T09:21:20.225Z,5.40
2023-01-31T09:25:33.503Z,5.40
2023-01-31T09:29:24.738Z,5.50
2023-01-31T09:33:25.802Z,5.70
2023-01-31T09:37:30.823Z,5.10
2023-01-31T09:41:38.082Z,5.10
2023-01-31T09:45:43.139Z,4.80
2023-01-31T09:49:54.008Z,5.50
2023-01-31T09:53:57.261Z,4.90
2023-01-31T09:58:01.948Z,5.00
2023-01-31T10:02:15.624Z,5.10
2023-01-31T10:06:26.251Z,5.10
2023-01-31T10:10:39.568Z,5.00
2023-01-31T10:14:50.485Z,4.80
2023-01-31T10:19:01.121Z,5.40
2023-01-31T10:23:09.344Z,5.50
2023-01-31T10:27:32.284Z,4.50
2023-01-31T10:31:37.290Z,4.70
2023-01-31T10:35:43.735Z,5.20
2023-01-31T10:39:48.628Z,5.00
2023-01-31T10:43:53.482Z,4.90
2023-01-31T10:48:00.211Z,5.40
2023-01-31T10:52:24.878Z,5.10
2023-01-31T10:56:39.018Z,4.80
2023-01-31T11:00:40.103Z,5.40
2023-01-31T11:04:42.597Z,4.90
2023-01-31T11:08:58.206Z,6.00
2023-01-31T11:13:03.685Z,6.20
2023-01-31T11:17:08.758Z,6.00
2023-01-31T11:21:10.949Z,5.10
2023-01-31T11:25:19.224Z,5.20
2023-01-31T11:29:43.021Z,6.00
2023-01-31T11:34:01.855Z,6.80
2023-01-31T11:38:21.579Z,6.20
2023-01-31T11:42:23.139Z,5.60
2023-01-31T11:46:24.414Z,4.70
2023-01-31T11:50:35.243Z,5.50
2023-01-31T11:54:36.310Z,4.80
2023-01-31T11:58:39.869Z,5.80
2023-01-31T12:02:41.446Z,6.30
2023-01-31T12:06:46.338Z,5.70
2023-01-31T12:10:48.122Z,5.80
2023-01-31T12:14:49.394Z,5.90
2023-01-31T12:19:15.556Z,5.10
2023-01-31T12:23:26.272Z,5.40
2023-01-31T12:27:50.925Z,5.50
2023-01-31T12:32:07.799Z,6.50
2023-01-31T12:36:27.920Z,6.90
2023-01-31T12:40:41.640Z,7.70
2023-01-31T12:44:52.690Z,6.30
2023-01-31T12:49:17.147Z,6.70
2023-01-31T12:53:21.962Z,6.50
2023-01-31T12:57:29.980Z,6.10
2023-01-31T13:01:40.907Z,6.20
2023-01-31T13:06:14.899Z,5.90
2023-01-31T13:10:34.648Z,6.10
2023-01-31T13:14:39.407Z,6.30
2023-01-31T13:18:44.160Z,6.90
2023-01-31T13:22:51.472Z,6.30
2023-01-31T13:27:02.187Z,6.90
2023-01-31T13:31:06.798Z,6.20
2023-01-31T13:35:21.224Z,6.00
2023-01-31T13:39:41.180Z,7.00
2023-01-31T13:43:42.314Z,5.90
2023-01-31T13:47:47.341Z,6.80
2023-01-31T13:52:05.560Z,6.30
2023-01-31T13:56:10.263Z,6.40
2023-01-31T14:00:23.994Z,5.90
2023-01-31T14:04:31.027Z,6.60
2023-01-31T14:08:51.131Z,6.70
2023-01-31T14:12:55.972Z,5.80
2023-01-31T14:16:57.173Z,6.40
2023-01-31T14:21:02.130Z,6.40
2023-01-31T14:25:12.437Z,5.50
2023-01-31T14:29:22.518Z,5.80
2023-01-31T14:33:26.668Z,5.60
2023-01-31T14:37:43.330Z,5.80
2023-01-31T14:42:07.728Z,5.50
2023-01-31T14:46:15.367Z,5.90
2023-01-31T14:50:36.724Z,5.40
2023-01-31T14:54:41.555Z,5.30
2023-01-31T14:58:45.361Z,6.20
2023-01-31T15:02:56.770Z,6.00
2023-01-31T15:06:58.046Z,6.20
2023-01-31T15:11:03.547Z,6.30
2023-01-31T15:15:25.319Z,6.30
2023-01-31T15:19:31.072Z,6.70
2023-01-31T15:23:35.296Z,6.50
2023-01-31T15:27:42.052Z,5.90
2023-01-31T15:31:46.413Z,6.60
2023-01-31T15:35:54.123Z,6.40
2023-01-31T15:39:59.182Z,6.70
2023-01-31T15:44:13.098Z,6.10
2023-01-31T15:48:17.425Z,6.50
2023-01-31T15:52:21.635Z,6.20
2023-01-31T15:56:25.061Z,6.30
2023-01-31T16:00:31.676Z,5.70
2023-01-31T16:04:32.835Z,6.20
2023-01-31T16:08:36.177Z,5.70
2023-01-31T16:12:40.666Z,5.70
2023-01-31T16:16:45.334Z,5.70
2023-01-31T16:20:51.866Z,5.60
2023-01-31T16:25:01.583Z,5.40
2023-01-31T16:29:12.290Z,5.50
2023-01-31T16:33:18.361Z,5.90
2023-01-31T16:37:41.198Z,5.90
2023-01-31T16:41:50.082Z,5.80
2023-01-31T16:45:55.019Z,5.50
2023-01-31T16:50:21.002Z,5.90
2023-01-31T16:54:26.448Z,5.90
2023-01-31T16:58:43.070Z,6.90
2023-01-31T17:02:44.349Z,6.50
2023-01-31T17:06:49.135Z,6.30
2023-01-31T17:10:51.038Z,6.00
2023-01-31T17:14:54.455Z,5.90
2023-01-31T17:18:55.801Z,6.00
2023-01-31T17:23:02.777Z,6.30
2023-01-31T17:27:00.257Z,6.20
2023-01-31T17:31:01.295Z,6.10
2023-01-31T17:35:06.263Z,5.80
2023-01-31T17:39:07.210Z,5.60
2023-01-31T17:43:11.945Z,5.80
2023-01-31T17:47:15.268Z,5.70
2023-01-31T17:51:16.794Z,6.00
2023-01-31T17:55:19.541Z,5.60
2023-01-31T17:59:26.832Z,6.10
2023-01-31T18:03:25.396Z,6.30
2023-01-31T18:07:28.412Z,6.00
2023-01-31T18:11:29.546Z,6.00
2023-01-31T18:15:31.095Z,6.30
2023-01-31T18:19:32.310Z,6.50
2023-01-31T18:23:33.254Z,6.00
2023-01-31T18:27:34.215Z,5.30
2023-01-31T18:31:35.441Z,6.00
2023-01-31T18:35:36.459Z,5.70
2023-01-31T18:39:37.381Z,5.50
2023-01-31T18:43:38.251Z,5.20
2023-01-31T18:47:39.240Z,5.60
2023-01-31T18:51:42.187Z,6.00
2023-01-31T18:55:43.454Z,5.90
2023-01-31T18:59:44.627Z,5.40
2023-01-31T19:03:49.530Z,5.70
2023-01-31T19:07:50.578Z,5.40
2023-01-31T19:11:51.690Z,5.70
2023-01-31T19:15:56.532Z,6.00
2023-01-31T19:24:09.710Z,7.00
2023-01-31T19:28:11.145Z,6.70
2023-01-31T19:32:12.137Z,5.90
2023-01-31T19:36:15.727Z,6.70
2023-01-31T19:40:18.832Z,5.90
2023-01-31T19:44:20.155Z,5.80
2023-01-31T19:48:22.709Z,6.40
2023-01-31T19:52:24.005Z,6.00
2023-01-31T19:56:25.251Z,6.30
2023-01-31T20:00:26.219Z,6.40
2023-01-31T20:04:29.328Z,6.50
2023-01-31T20:08:31.666Z,6.30
2023-01-31T20:12:32.617Z,6.30
2023-01-31T20:16:33.652Z,6.70
2023-01-31T20:20:34.751Z,6.20
2023-01-31T20:24:35.863Z,7.30
2023-01-31T20:28:36.958Z,7.40
2023-01-31T20:32:38.171Z,6.60
2023-01-31T20:36:39.319Z,7.10
2023-01-31T20:40:40.449Z,7.10
2023-01-31T20:44:41.614Z,5.80
2023-01-31T20:48:42.731Z,5.90
2023-01-31T20:52:43.753Z,6.30
2023-01-31T20:56:44.742Z,5.90
2023-01-31T21:00:46.189Z,5.80
2023-01-31T21:04:47.484Z,5.50
2023-01-31T21:08:48.683Z,5.40
2023-01-31T21:12:51.882Z,5.80
2023-01-31T21:16:52.858Z,5.40
2023-01-31T21:20:55.918Z,5.30
2023-01-31T21:24:57.086Z,5.70
2023-01-31T21:29:01.743Z,5.50
2023-01-31T21:33:03.659Z,5.50
2023-01-31T21:37:04.755Z,6.00
2023-01-31T21:41:25.269Z,5.60
2023-01-31T21:45:41.300Z,5.60
2023-01-31T21:49:42.620Z,5.60
2023-01-31T21:53:44.685Z,5.40
2023-01-31T21:57:46.080Z,5.60
2023-01-31T22:01:47.588Z,5.20
2023-01-31T22:05:48.745Z,6.00
2023-01-31T22:09:49.743Z,5.60
2023-01-31T22:13:55.555Z,5.60
2023-01-31T22:17:55.550Z,5.80
2023-01-31T22:21:58.344Z,6.40
2023-01-31T22:26:07.973Z,5.50
2023-01-31T22:30:16.937Z,5.60
2023-01-31T22:34:15.427Z,5.70
2023-01-31T22:38:18.936Z,5.50
2023-01-31T22:42:19.897Z,5.90
2023-01-31T22:46:24.106Z,5.90
2023-01-31T22:50:27.394Z,6.50
2023-01-31T22:54:28.403Z,6.40
2023-01-31T22:58:29.654Z,5.60
2023-01-31T23:02:31.241Z,6.10
2023-01-31T23:06:33.754Z,5.80
2023-01-31T23:10:34.864Z,5.60
2023-01-31T23:14:36.023Z,6.20
2023-01-31T23:18:37.160Z,5.00
2023-01-31T23:22:38.534Z,5.70
2023-01-31T23:26:39.936Z,6.10
2023-01-31T23:30:43.170Z,6.70
2023-01-31T23:34:44.432Z,6.20
2023-01-31T23:38:45.829Z,6.30
2023-01-31T23:42:46.994Z,7.20
2023-01-31T23:46:49.115Z,6.70
2023-01-31T23:50:50.096Z,6.20
2023-01-31T23:54:51.281Z,6.60
2023-01-31T23:58:58.024Z,6.20
